Time;durP1;ratioP1;P1;durP2;ratioP2;P2;SDS_P1;SDS_P2;PMS_P1;PMS_P2;Temp;Humidity;BMP_temperature;BMP_pressure;BME280_temperature;BME280_humidity;BME280_pressure;Samples;Min_cycle;Max_cycle;Signal;HPM_P1;HPM_P2
2022/08/15 00:02:12;;;;;;;7.72;6.40;;;;;;;23.46;78.12;99596.13;5199985;28;20021;-72
2022/08/15 00:04:43;;;;;;;8.27;5.25;;;;;;;23.55;77.24;99593.34;5199773;28;20044;-72
2022/08/15 00:07:13;;;;;;;6.38;4.30;;;;;;;23.45;77.17;99589.13;5199298;28;20033;-72
2022/08/15 00:09:43;;;;;;;6.45;4.57;;;;;;;23.37;77.82;99597.94;5199714;28;20368;-72
2022/08/15 00:12:14;;;;;;;6.13;4.65;;;;;;;23.40;77.83;99596.78;5199113;28;20071;-72
2022/08/15 00:14:44;;;;;;;6.80;4.65;;;;;;;23.47;76.34;99593.31;5201602;28;20108;-72
2022/08/15 00:17:15;;;;;;;6.63;4.65;;;;;;;23.51;75.80;99591.19;5202629;28;20100;-72
2022/08/15 00:19:47;;;;;;;4.88;4.03;;;;;;;23.56;75.51;99591.53;5201883;28;20029;-72
2022/08/15 00:22:18;;;;;;;5.47;4.03;;;;;;;23.58;76.83;99584.19;5198869;28;20029;-72
2022/08/15 00:24:50;;;;;;;7.15;5.50;;;;;;;23.46;78.30;99580.97;5202309;28;20098;-72
2022/08/15 00:27:24;;;;;;;8.70;6.32;;;;;;;23.46;78.90;99575.66;5202415;28;20550;-72
2022/08/15 00:29:54;;;;;;;11.82;7.30;;;;;;;23.45;78.92;99584.66;5199102;28;20063;-72
2022/08/15 00:32:24;;;;;;;15.02;10.95;;;;;;;23.32;79.39;99578.06;5190934;28;20526;-72
2022/08/15 00:34:55;;;;;;;14.27;10.60;;;;;;;23.29;79.46;99573.91;5196941;28;20090;-72
2022/08/15 00:37:26;;;;;;;15.30;9.00;;;;;;;23.24;79.00;99581.53;5197815;28;20483;-71
2022/08/15 00:39:56;;;;;;;11.98;7.15;;;;;;;23.19;79.20;99575.00;5199698;28;20040;-72
2022/08/15 00:42:27;;;;;;;7.82;5.85;;;;;;;23.15;79.46;99570.97;5200323;28;20395;-71
2022/08/15 00:44:58;;;;;;;8.07;5.45;;;;;;;23.15;78.91;99582.47;5200869;28;20025;-72
2022/08/15 00:47:29;;;;;;;6.68;5.00;;;;;;;22.99;79.65;99579.69;5202321;28;20690;-72
2022/08/15 00:49:59;;;;;;;5.90;4.85;;;;;;;22.83;79.92;99586.75;5202354;28;20108;-72
2022/08/15 00:52:31;;;;;;;5.93;4.63;;;;;;;22.62;81.44;99574.75;5202806;28;20055;-72
2022/08/15 00:55:12;;;;;;;7.63;5.00;;;;;;;22.58;81.46;99576.88;5202602;28;20029;-72
2022/08/15 00:57:46;;;;;;;8.77;4.70;;;;;;;22.84;80.51;99578.56;5200483;28;20032;-72
2022/08/15 01:00:31;;;;;;;7.72;4.97;;;;;;;22.90;80.74;99580.63;5201391;28;20033;-72
2022/08/15 01:03:06;;;;;;;8.63;4.87;;;;;;;22.96;80.94;99574.66;5200271;28;20422;-72
2022/08/15 01:05:37;;;;;;;9.38;5.10;;;;;;;22.90;81.52;99571.78;5201718;28;20357;-72
2022/08/15 01:08:07;;;;;;;6.82;5.07;;;;;;;22.82;82.02;99559.25;5201547;28;20021;-71
2022/08/15 01:10:38;;;;;;;6.60;5.18;;;;;;;22.43;84.98;99562.41;5202106;28;20078;-72
2022/08/15 01:13:09;;;;;;;10.95;6.00;;;;;;;22.29;84.50;99565.59;5202027;28;20029;-72
2022/08/15 01:15:40;;;;;;;9.57;5.70;;;;;;;22.48;82.88;99565.47;5201999;28;20040;-72
2022/08/15 01:18:10;;;;;;;9.05;6.05;;;;;;;22.55;82.84;99565.69;5201712;28;20406;-71
2022/08/15 01:20:43;;;;;;;9.75;5.80;;;;;;;22.57;83.57;99563.72;5202288;28;20491;-72
2022/08/15 01:23:31;;;;;;;9.40;5.35;;;;;;;22.42;84.19;99559.94;5201802;28;20116;-72
2022/08/15 01:26:06;;;;;;;7.85;5.78;;;;;;;22.36;85.11;99566.66;5200699;28;20025;-72
2022/08/15 01:28:41;;;;;;;8.02;5.75;;;;;;;21.98;87.52;99566.13;5202084;28;20056;-72
2022/08/15 01:31:18;;;;;;;8.70;5.80;;;;;;;21.82;87.66;99560.63;5202480;28;20027;-72
2022/08/15 01:33:55;;;;;;;8.02;5.05;;;;;;;21.71;88.71;99567.00;5197785;28;20116;-72
2022/08/15 01:36:28;;;;;;;6.13;5.53;;;;;;;21.67;89.36;99568.28;5201490;28;20061;-72
2022/08/15 01:39:08;;;;;;;7.82;5.30;;;;;;;21.82;86.89;99552.63;5200741;28;20091;-72
2022/08/15 01:41:47;;;;;;;6.20;5.05;;;;;;;22.05;86.15;99556.56;5201657;28;20064;-72
2022/08/15 01:44:19;;;;;;;6.75;5.18;;;;;;;22.07;86.23;99550.06;5197550;28;20033;-72
2022/08/15 01:47:05;;;;;;;8.80;5.15;;;;;;;21.92;88.18;99551.59;5199968;28;20037;-72
2022/08/15 01:49:39;;;;;;;7.43;5.15;;;;;;;21.75;88.18;99555.06;5199956;28;20021;-71
2022/08/15 01:52:11;;;;;;;6.07;5.32;;;;;;;21.77;87.44;99557.59;5201928;28;20437;-72
2022/08/15 01:54:41;;;;;;;7.45;5.32;;;;;;;21.81;87.34;99554.47;5201074;28;20548;-72
2022/08/15 01:57:12;;;;;;;6.13;5.43;;;;;;;21.64;88.49;99554.44;5200553;28;20021;-72
2022/08/15 01:59:42;;;;;;;9.40;5.47;;;;;;;21.58;88.92;99552.34;5201131;28;20029;-72
2022/08/15 02:02:12;;;;;;;7.45;5.80;;;;;;;21.37;90.47;99554.41;5201075;28;20088;-72
2022/08/15 02:04:43;;;;;;;6.53;5.20;;;;;;;21.47;89.83;99549.88;5201033;28;20037;-72
2022/08/15 02:07:17;;;;;;;5.93;5.32;;;;;;;21.59;88.10;99548.69;5200498;28;20060;-72
2022/08/15 02:09:49;;;;;;;7.53;5.90;;;;;;;21.28;90.59;99545.50;5196564;28;20033;-72
2022/08/15 02:12:26;;;;;;;7.20;5.40;;;;;;;21.31;90.27;99549.66;5200750;28;20044;-72
2022/08/15 02:14:58;;;;;;;9.27;5.90;;;;;;;21.32;90.13;99540.72;5201056;28;20558;-72
2022/08/15 02:17:28;;;;;;;7.03;5.72;;;;;;;21.19;90.15;99540.19;5200466;28;20029;-72
2022/08/15 02:20:00;;;;;;;7.93;5.90;;;;;;;21.24;90.00;99541.44;5201234;28;20109;-72
2022/08/15 02:22:30;;;;;;;8.20;5.43;;;;;;;21.10;89.90;99535.78;5201106;28;20056;-72
2022/08/15 02:25:03;;;;;;;6.18;5.40;;;;;;;20.54;91.43;99521.66;5200975;28;20568;-71
2022/08/15 02:27:37;;;;;;;8.10;5.63;;;;;;;20.49;91.92;99529.19;5200054;28;20112;-72
2022/08/15 02:30:16;;;;;;;6.60;5.43;;;;;;;20.47;93.03;99528.50;5200846;28;20029;-72
2022/08/15 02:32:47;;;;;;;8.10;5.53;;;;;;;20.49;93.57;99531.84;5195867;28;20120;-72
2022/08/15 02:35:17;;;;;;;9.27;5.95;;;;;;;20.43;94.64;99529.75;5200641;28;20105;-72
2022/08/15 02:37:48;;;;;;;8.32;5.75;;;;;;;20.42;94.25;99533.41;5199539;28;20547;-72
2022/08/15 02:40:19;;;;;;;11.00;5.75;;;;;;;20.38;95.01;99536.47;5200550;28;20491;-72
2022/08/15 02:42:50;;;;;;;8.38;5.57;;;;;;;20.32;95.17;99535.22;5200671;28;20041;-72
2022/08/15 02:45:20;;;;;;;7.57;5.25;;;;;;;20.54;93.71;99542.88;5199866;28;20064;-72
2022/08/15 02:47:52;;;;;;;9.30;5.70;;;;;;;20.79;92.61;99548.44;5199243;28;20022;-72
2022/08/15 02:50:22;;;;;;;6.63;5.70;;;;;;;20.68;92.47;99545.06;5199942;28;20026;-72
2022/08/15 02:52:53;;;;;;;7.00;5.60;;;;;;;20.69;92.42;99547.59;5200228;28;20032;-72
2022/08/15 02:55:23;;;;;;;7.65;6.03;;;;;;;20.58;93.97;99549.59;5200474;28;20029;-72
2022/08/15 02:57:54;;;;;;;8.43;6.07;;;;;;;20.39;95.39;99549.59;5199897;28;20025;-72
2022/08/15 03:00:24;;;;;;;8.63;6.28;;;;;;;20.25;96.73;99554.47;5198311;28;20029;-72
2022/08/15 03:02:58;;;;;;;8.75;5.97;;;;;;;20.49;94.95;99550.41;5198917;28;20610;-72
2022/08/15 03:05:31;;;;;;;8.07;6.07;;;;;;;20.63;93.52;99544.69;5199623;28;20083;-72
2022/08/15 03:08:03;;;;;;;7.25;6.15;;;;;;;20.68;92.92;99540.63;5199615;28;20057;-71
2022/08/15 03:10:35;;;;;;;10.43;6.40;;;;;;;20.83;92.91;99538.34;5199929;28;20039;-72
2022/08/15 03:13:11;;;;;;;7.55;6.53;;;;;;;20.68;93.35;99543.28;5200700;28;20037;-71
2022/08/15 03:15:44;;;;;;;10.27;6.72;;;;;;;20.55;93.87;99547.22;5197278;28;20021;-71
2022/08/15 03:18:14;;;;;;;7.68;6.18;;;;;;;20.44;95.21;99542.06;5199615;28;20101;-72
2022/08/15 03:20:46;;;;;;;7.68;6.13;;;;;;;20.69;92.34;99547.59;5200179;28;20104;-72
2022/08/15 03:23:24;;;;;;;7.15;5.78;;;;;;;20.62;92.41;99539.53;5196189;28;20021;-71
2022/08/15 03:25:59;;;;;;;7.40;6.20;;;;;;;20.48;93.84;99542.63;5200083;28;20022;-72
2022/08/15 03:28:32;;;;;;;8.15;6.28;;;;;;;20.54;93.00;99540.25;5197483;28;20032;-72
2022/08/15 03:31:05;;;;;;;8.50;6.53;;;;;;;20.43;94.15;99537.72;5198346;28;20029;-72
2022/08/15 03:33:37;;;;;;;11.65;6.20;;;;;;;20.30;94.84;99534.50;5200923;28;20563;-72
2022/08/15 03:36:08;;;;;;;8.82;6.18;;;;;;;20.41;94.69;99536.19;5198657;28;20450;-71
2022/08/15 03:38:39;;;;;;;7.22;5.97;;;;;;;20.65;92.00;99533.94;5199270;28;20033;-72
2022/08/15 03:41:09;;;;;;;10.82;6.80;;;;;;;20.35;95.01;99534.94;5200135;28;20406;-72
2022/08/15 03:43:41;;;;;;;9.52;6.57;;;;;;;20.35;94.48;99542.06;5199970;28;20403;-72
2022/08/15 03:46:16;;;;;;;9.65;6.28;;;;;;;20.02;94.44;99535.38;5200008;28;20033;-70
2022/08/15 03:48:50;;;;;;;8.73;6.43;;;;;;;20.05;93.79;99540.41;5196318;28;20051;-72
2022/08/15 03:51:22;;;;;;;7.32;6.07;;;;;;;19.75;95.36;99537.00;5204036;28;20033;-72
2022/08/15 03:53:56;;;;;;;9.73;6.20;;;;;;;19.58;96.59;99530.53;5203960;28;20067;-72
2022/08/15 03:56:29;;;;;;;9.15;6.40;;;;;;;19.86;94.03;99529.75;5203305;28;20040;-72
2022/08/15 03:59:01;;;;;;;8.40;5.90;;;;;;;19.96;91.87;99538.53;5202267;28;20044;-71
2022/08/15 04:01:34;;;;;;;7.63;6.28;;;;;;;19.98;91.57;99539.22;5203293;28;20418;-72
2022/08/15 04:04:05;;;;;;;7.60;5.60;;;;;;;19.85;94.75;99533.38;5204068;28;20112;-72
2022/08/15 04:06:40;;;;;;;7.50;5.90;;;;;;;20.02;93.50;99538.03;5202478;28;20159;-71
2022/08/15 04:09:10;;;;;;;8.03;6.67;;;;;;;19.59;97.43;99540.16;5203366;28;20112;-72
2022/08/15 04:11:41;;;;;;;7.90;6.10;;;;;;;19.54;97.62;99542.38;5203178;28;20168;-72
2022/08/15 04:14:11;;;;;;;8.02;6.20;;;;;;;19.54;97.83;99545.03;5203252;28;20438;-72
2022/08/15 04:16:41;;;;;;;7.47;6.28;;;;;;;19.69;96.53;99537.50;5203178;28;20041;-71
2022/08/15 04:19:15;;;;;;;7.80;6.30;;;;;;;19.64;98.15;99532.63;5203027;28;20025;-72
2022/08/15 04:21:45;;;;;;;6.90;5.95;;;;;;;19.92;96.53;99536.31;5201941;28;20055;-72
2022/08/15 04:24:16;;;;;;;8.25;6.20;;;;;;;19.96;97.03;99530.56;5202362;28;20444;-72
2022/08/15 04:26:46;;;;;;;8.80;6.05;;;;;;;19.96;96.78;99530.56;5200439;28;20029;-72
2022/08/15 04:29:16;;;;;;;6.85;5.90;;;;;;;20.01;96.48;99531.00;5202781;28;20040;-72
2022/08/15 04:31:47;;;;;;;8.43;6.35;;;;;;;20.08;96.20;99529.50;5201898;28;20056;-72
2022/08/15 04:34:17;;;;;;;8.85;6.53;;;;;;;20.16;96.48;99537.59;5202682;28;20132;-72
2022/08/15 04:36:47;;;;;;;9.10;6.43;;;;;;;20.08;96.81;99529.50;5202351;28;20033;-72
2022/08/15 04:39:18;;;;;;;7.82;6.10;;;;;;;20.19;97.12;99521.41;5202912;28;20068;-72
2022/08/15 04:41:48;;;;;;;7.68;5.75;;;;;;;20.19;95.74;99526.72;5202843;28;20509;-72
2022/08/15 04:44:18;;;;;;;10.23;6.03;;;;;;;20.10;96.57;99524.88;5202869;28;20026;-72
2022/08/15 04:46:51;;;;;;;7.95;6.22;;;;;;;19.93;97.71;99536.16;5202224;28;20029;-72
2022/08/15 04:49:21;;;;;;;7.88;6.38;;;;;;;20.03;97.80;99537.06;5202064;28;20091;-72
2022/08/15 04:51:52;;;;;;;8.00;6.68;;;;;;;20.22;95.67;99529.09;5202657;28;20041;-72
2022/08/15 04:54:22;;;;;;;11.75;6.68;;;;;;;20.30;93.47;99526.56;5202383;28;20026;-72
2022/08/15 04:56:53;;;;;;;8.57;6.47;;;;;;;20.33;94.63;99528.91;5200515;28;20486;-71
2022/08/15 04:59:23;;;;;;;10.80;6.85;;;;;;;20.46;94.41;99526.81;5201961;28;20022;-72
2022/08/15 05:01:53;;;;;;;8.30;6.68;;;;;;;20.33;94.09;99528.91;5202183;28;20037;-72
2022/08/15 05:04:24;;;;;;;9.13;6.30;;;;;;;20.62;91.62;99524.41;5202170;28;20510;-72
2022/08/15 05:06:54;;;;;;;13.73;7.15;;;;;;;20.62;92.00;99524.41;5201551;28;20067;-72
2022/08/15 05:09:24;;;;;;;7.93;6.13;;;;;;;20.83;92.71;99520.63;5202118;28;20029;-71
2022/08/15 05:11:55;;;;;;;8.45;5.90;;;;;;;20.82;93.65;99518.06;5201671;28;20033;-72
2022/08/15 05:14:25;;;;;;;7.15;5.72;;;;;;;21.07;93.36;99512.16;5201055;28;20021;-72
2022/08/15 05:16:56;;;;;;;8.70;6.47;;;;;;;21.14;93.81;99506.13;5201689;28;20029;-72
2022/08/15 05:19:26;;;;;;;9.43;6.55;;;;;;;21.00;95.66;99508.38;5202048;28;20096;-72
2022/08/15 05:21:57;;;;;;;11.73;6.35;;;;;;;21.09;93.49;99499.56;5201842;28;20594;-72
2022/08/15 05:24:27;;;;;;;7.78;6.63;;;;;;;21.18;91.56;99494.19;5202065;28;20048;-72
2022/08/15 05:26:57;;;;;;;10.48;6.75;;;;;;;21.37;90.27;99506.56;5201299;28;20040;-72
2022/08/15 05:29:28;;;;;;;10.68;6.45;;;;;;;21.37;90.65;99504.72;5202112;28;20025;-72
2022/08/15 05:31:58;;;;;;;8.25;6.63;;;;;;;21.43;93.69;99506.78;5201749;28;20078;-72
2022/08/15 05:34:28;;;;;;;7.82;5.95;;;;;;;21.73;91.77;99518.97;5202092;28;20079;-72
2022/08/15 05:37:01;;;;;;;9.25;6.43;;;;;;;21.65;90.62;99510.88;5200935;28;20513;-72
2022/08/15 05:39:32;;;;;;;10.70;6.88;;;;;;;21.63;89.87;99502.22;5201995;28;20056;-72
2022/08/15 05:42:21;;;;;;;10.65;6.40;;;;;;;21.96;89.84;99501.56;5200531;28;20038;-72
2022/08/15 05:45:00;;;;;;;10.93;6.40;;;;;;;21.84;91.59;99500.13;5198377;28;20033;-71
2022/08/15 05:47:35;;;;;;;8.18;6.57;;;;;;;22.03;91.16;99494.63;5201318;28;20463;-72
2022/08/15 05:50:34;;;;;;;9.23;6.90;;;;;;;22.18;89.10;99496.63;5201599;28;20199;-71
2022/08/15 05:53:21;;;;;;;9.32;6.95;;;;;;;22.31;87.82;99498.88;5199461;28;20466;-72
2022/08/15 05:56:18;;;;;;;11.32;7.22;;;;;;;22.41;87.56;99502.34;5201647;28;20025;-72
2022/08/15 05:58:59;;;;;;;9.90;6.95;;;;;;;22.47;88.21;99497.22;5197509;28;20112;-72
2022/08/15 06:01:44;;;;;;;8.98;7.18;;;;;;;22.61;87.37;99499.31;5201291;28;20028;-72
2022/08/15 06:04:19;;;;;;;10.80;7.35;;;;;;;22.55;89.15;99499.09;5201252;28;20044;-71
2022/08/15 06:06:51;;;;;;;10.52;6.82;;;;;;;22.74;87.58;99491.72;5200474;28;20029;-72
2022/08/15 06:09:31;;;;;;;10.95;7.28;;;;;;;22.63;88.48;99496.50;5201172;28;20026;-72
2022/08/15 06:12:08;;;;;;;9.95;7.50;;;;;;;22.83;87.74;99501.47;5200606;28;20028;-72
2022/08/15 06:14:42;;;;;;;10.27;7.03;;;;;;;22.90;86.64;99508.66;5199967;28;20274;-71
2022/08/15 06:17:36;;;;;;;11.80;7.53;;;;;;;22.96;86.68;99504.50;5196103;28;20509;-71
2022/08/15 06:20:10;;;;;;;12.32;7.28;;;;;;;22.98;87.61;99494.56;5202409;28;20626;-72
2022/08/15 06:23:00;;;;;;;11.65;7.40;;;;;;;23.13;86.26;99501.81;5183574;28;20037;-72
2022/08/15 06:26:17;;;;;;;8.93;7.18;;;;;;;23.22;86.34;99497.34;5199551;28;20048;-72
2022/08/15 06:29:14;;;;;;;8.23;6.72;;;;;;;23.14;86.58;99494.63;5199840;28;20546;-72
2022/08/15 06:31:57;;;;;;;9.48;6.97;;;;;;;23.23;86.72;99494.50;5201145;28;20231;-72
2022/08/15 06:34:43;;;;;;;12.60;6.80;;;;;;;23.40;85.84;99488.25;5197966;28;20026;-72
2022/08/15 06:37:42;;;;;;;13.35;6.72;;;;;;;23.84;84.23;99491.59;5200388;28;20087;-72
2022/08/15 06:40:26;;;;;;;7.93;6.45;;;;;;;23.93;84.71;99498.59;5200028;28;20033;-72
2022/08/15 06:42:57;;;;;;;8.18;6.53;;;;;;;23.94;83.55;99501.13;5198213;28;20032;-72
2022/08/15 06:45:33;;;;;;;12.02;6.85;;;;;;;24.01;86.04;99501.28;5200524;28;20033;-72
2022/08/15 06:48:10;;;;;;;8.63;6.80;;;;;;;23.91;85.73;99495.25;5198123;28;20025;-72
2022/08/15 06:50:50;;;;;;;7.97;6.75;;;;;;;24.08;85.44;99487.09;5199981;28;20372;-72
2022/08/15 06:53:28;;;;;;;12.43;6.88;;;;;;;24.06;85.78;99491.75;5196669;28;20029;-72
2022/08/15 06:56:11;;;;;;;8.85;6.82;;;;;;;23.91;86.58;99490.72;5200084;28;20411;-72
2022/08/15 06:59:13;;;;;;;13.63;6.45;;;;;;;24.01;87.17;99485.28;5200038;28;20083;-72
2022/08/15 07:02:04;;;;;;;11.07;6.38;;;;;;;24.20;86.91;99479.59;5199585;28;20526;-72
2022/08/15 07:04:50;;;;;;;13.18;6.40;;;;;;;24.37;84.81;99479.41;5198399;28;20079;-72
2022/08/15 07:07:44;;;;;;;7.55;6.45;;;;;;;24.55;85.40;99464.06;5196182;28;20084;-72
2022/08/15 07:10:27;;;;;;;9.68;6.93;;;;;;;24.88;82.92;99471.00;5200084;28;20040;-71
2022/08/15 07:13:00;;;;;;;11.48;6.50;;;;;;;25.01;82.04;99472.13;5196291;28;20061;-72
2022/08/15 07:15:45;;;;;;;11.32;6.63;;;;;;;25.10;80.73;99472.94;5200165;28;20419;-72
2022/08/15 07:18:22;;;;;;;10.43;6.00;;;;;;;25.45;79.05;99467.16;5199616;28;20104;-72
2022/08/15 07:21:00;;;;;;;6.50;5.78;;;;;;;25.44;79.24;99473.47;5192903;28;20026;-72
2022/08/15 07:23:32;;;;;;;11.77;6.43;;;;;;;25.53;77.06;99467.94;5197339;28;20604;-72
2022/08/15 07:26:07;;;;;;;11.70;5.65;;;;;;;25.59;78.58;99469.06;5197107;28;20056;-72
2022/08/15 07:28:49;;;;;;;13.80;6.10;;;;;;;25.43;80.40;99469.13;5203642;28;20037;-72
2022/08/15 07:31:28;;;;;;;10.63;5.78;;;;;;;25.82;78.64;99469.94;5200413;28;20084;-72
2022/08/15 07:34:21;;;;;;;8.80;5.65;;;;;;;26.12;76.29;99471.72;5202408;28;20391;-72
2022/08/15 07:37:01;;;;;;;12.02;6.40;;;;;;;26.13;76.62;99473.38;5200726;28;20029;-72
2022/08/15 07:39:43;;;;;;;9.68;5.40;;;;;;;26.54;73.98;99472.88;5203334;28;20025;-72
2022/08/15 07:42:18;;;;;;;7.68;5.88;;;;;;;26.72;74.14;99475.25;5202317;28;20029;-72
2022/08/15 07:44:50;;;;;;;;;;;;;;;26.70;74.90;99470.06;5200581;28;20029;-72
2022/08/15 07:47:25;;;;;;;8.25;5.53;;;;;;;27.38;72.30;99465.25;5203185;28;20297;-72
2022/08/15 07:50:11;;;;;;;9.10;5.28;;;;;;;27.91;70.46;99463.00;5203824;28;20049;-72
2022/08/15 07:52:41;;;;;;;7.07;4.88;;;;;;;28.43;69.91;99455.47;5203934;28;20033;-72
2022/08/15 07:55:18;;;;;;;8.88;4.57;;;;;;;28.64;67.84;99460.78;5204035;28;20507;-72
2022/08/15 07:58:19;;;;;;;9.15;5.20;;;;;;;31.05;65.91;99453.16;5198516;28;20037;-73
2022/08/15 08:01:06;;;;;;;7.00;5.28;;;;;;;31.54;62.82;99461.53;5196458;28;20119;-72
2022/08/15 08:03:39;;;;;;;10.05;4.80;;;;;;;33.79;55.71;99452.66;5203740;28;20112;-72
2022/08/15 08:06:25;;;;;;;9.05;4.90;;;;;;;34.08;56.99;99457.25;5203898;28;20095;-73
2022/08/15 08:09:14;;;;;;;9.93;5.20;;;;;;;34.24;56.69;99454.75;5200257;28;20030;-73
2022/08/15 08:12:05;;;;;;;6.95;4.97;;;;;;;34.81;53.80;99455.88;5203831;28;20033;-73
2022/08/15 08:14:54;;;;;;;7.45;4.57;;;;;;;35.52;51.75;99451.75;5193946;28;20550;-72
2022/08/15 08:17:50;;;;;;;7.53;4.55;;;;;;;33.77;55.81;99449.34;5202263;28;20029;-73
2022/08/15 08:20:32;;;;;;;7.30;4.50;;;;;;;34.63;53.49;99450.50;5198797;28;20545;-73
2022/08/15 08:23:19;;;;;;;8.90;4.38;;;;;;;35.01;53.36;99454.44;5202208;28;20068;-73
2022/08/15 08:26:18;;;;;;;7.07;4.10;;;;;;;35.66;52.07;99453.16;5200945;28;20026;-73
2022/08/15 08:28:57;;;;;;;6.90;4.35;;;;;;;34.25;54.05;99456.41;5198602;28;20395;-73
2022/08/15 08:31:47;;;;;;;8.95;4.45;;;;;;;34.91;52.43;99442.53;5201868;28;20037;-73
2022/08/15 08:34:46;;;;;;;9.35;4.38;;;;;;;34.10;53.03;99455.13;5199851;28;20025;-72
2022/08/15 08:37:29;;;;;;;10.65;4.63;;;;;;;33.02;55.15;99452.56;5197129;28;20180;-72
2022/08/15 08:43:46;;;;;;;7.72;3.60;;;;;;;36.06;51.48;99434.84;5198689;28;20076;-72
2022/08/15 08:46:37;;;;;;;10.23;4.45;;;;;;;36.34;50.96;99434.84;5202215;28;20037;-72
2022/08/15 08:49:19;;;;;;;6.18;4.50;;;;;;;35.73;51.04;99438.34;5202030;28;20095;-73
2022/08/15 08:52:09;;;;;;;8.20;4.18;;;;;;;33.64;53.39;99444.13;5199450;28;20029;-72
2022/08/15 08:55:02;;;;;;;9.02;4.43;;;;;;;33.03;55.14;99435.25;5202426;28;20674;-72
2022/08/15 08:57:38;;;;;;;7.20;3.72;;;;;;;33.05;54.13;99438.53;5201220;28;20025;-72
2022/08/15 09:00:21;;;;;;;5.68;4.40;;;;;;;32.28;56.09;99438.25;5202711;28;20065;-72
2022/08/15 09:02:58;;;;;;;8.20;4.50;;;;;;;31.66;58.29;99440.06;5199687;28;20447;-72
2022/08/15 09:05:56;;;;;;;11.93;4.70;;;;;;;33.03;55.18;99430.66;5202539;28;20057;-72
2022/08/15 09:08:34;;;;;;;12.38;4.65;;;;;;;32.95;56.40;99440.97;5201559;28;20057;-72
2022/08/15 09:11:38;;;;;;;7.43;4.03;;;;;;;33.07;55.89;99431.03;5200653;28;20108;-72
2022/08/15 09:14:23;;;;;;;13.00;4.38;;;;;;;33.16;55.57;99435.09;5202161;28;20430;-72
2022/08/15 09:16:57;;;;;;;7.85;4.32;;;;;;;32.49;56.81;99426.19;5199052;28;20126;-72
2022/08/15 09:19:51;;;;;;;6.70;4.38;;;;;;;32.47;55.27;99429.13;5201335;28;20033;-72
2022/08/15 09:22:21;;;;;;;7.13;4.57;;;;;;;31.96;55.88;99431.16;5199919;28;20025;-72
2022/08/15 09:24:53;;;;;;;8.38;5.00;;;;;;;31.59;58.02;99436.56;5201949;28;20037;-72
2022/08/15 09:27:41;;;;;;;6.35;4.40;;;;;;;32.22;57.67;99433.69;5202159;28;20079;-72
2022/08/15 09:30:12;;;;;;;8.10;4.65;;;;;;;32.29;57.44;99429.06;5197302;28;20132;-71
2022/08/15 09:32:49;;;;;;;10.77;4.70;;;;;;;32.95;55.09;99433.66;5201543;28;20037;-72
2022/08/15 09:35:28;;;;;;;6.57;4.43;;;;;;;32.04;57.11;99428.19;5198404;28;20025;-72
2022/08/15 09:38:50;;;;;;;9.60;5.05;;;;;;;32.31;56.71;99424.28;5201885;28;20490;-72
2022/08/15 09:41:40;;;;;;;10.35;4.90;;;;;;;32.80;55.49;99420.69;5217741;28;20049;-72
2022/08/15 09:44:35;;;;;;;9.13;5.03;;;;;;;32.66;55.94;99416.44;5217284;28;20036;-72
2022/08/15 09:47:29;;;;;;;8.10;5.03;;;;;;;32.99;55.52;99420.50;5200461;28;20041;-71
2022/08/15 09:50:38;;;;;;;8.10;4.53;;;;;;;32.99;54.47;99417.78;5198804;28;20057;-72
2022/08/15 09:53:29;;;;;;;8.77;5.00;;;;;;;32.59;54.54;99416.50;5199597;28;20037;-71
2022/08/15 09:56:09;;;;;;;6.70;4.22;;;;;;;32.45;54.94;99420.41;5202090;28;20486;-72
2022/08/15 09:58:52;;;;;;;6.53;4.45;;;;;;;31.83;56.06;99409.63;5200237;28;20037;-72
2022/08/15 10:01:29;;;;;;;7.95;4.70;;;;;;;31.60;59.03;99403.94;5195602;28;20029;-71
2022/08/15 10:04:08;;;;;;;7.47;4.88;;;;;;;32.35;56.55;99400.31;5198401;28;20036;-72
2022/08/15 10:07:35;;;;;;;6.47;4.63;;;;;;;32.57;56.61;99394.25;5198159;28;20045;-71
2022/08/15 10:10:31;;;;;;;13.82;4.68;;;;;;;32.62;54.68;99394.41;5199777;28;20033;-71
2022/08/15 10:13:04;;;;;;;8.38;4.60;;;;;;;32.95;55.55;99387.63;5198475;28;20431;-72
2022/08/15 10:15:42;;;;;;;8.40;4.65;;;;;;;32.92;54.87;99387.22;5200402;28;20033;-71
2022/08/15 10:18:21;;;;;;;7.20;4.30;;;;;;;32.82;54.42;99386.94;5200565;28;20068;-71
2022/08/15 10:21:17;;;;;;;10.35;4.32;;;;;;;32.58;54.54;99386.97;5195981;28;20099;-72
2022/08/15 10:23:52;;;;;;;8.10;4.25;;;;;;;32.58;53.67;99382.38;5198915;28;20501;-71
2022/08/15 10:26:34;;;;;;;6.35;4.22;;;;;;;32.59;52.97;99378.59;5200918;28;20053;-72
2022/08/15 10:29:12;;;;;;;6.28;4.05;;;;;;;32.98;53.73;99379.03;5178424;28;20396;-71
2022/08/15 10:31:50;;;;;;;5.13;3.95;;;;;;;32.62;53.90;99383.59;5193408;28;20041;-71
2022/08/15 10:34:49;;;;;;;9.32;4.20;;;;;;;32.87;52.50;99381.66;5196558;28;20438;-71
2022/08/15 10:37:44;;;;;;;6.30;3.92;;;;;;;32.82;53.00;99376.13;5194068;28;20038;-72
2022/08/15 10:40:17;;;;;;;7.45;4.22;;;;;;;33.24;53.49;99367.91;5198634;28;20402;-72
2022/08/15 10:43:13;;;;;;;9.75;4.30;;;;;;;33.14;53.43;99364.88;5192214;28;20049;-72
2022/08/15 10:46:15;;;;;;;7.85;4.45;;;;;;;32.83;53.65;99369.66;5199784;28;20021;-72
2022/08/15 10:49:11;;;;;;;11.38;4.70;;;;;;;32.67;53.55;99363.94;5198026;28;20190;-72
2022/08/15 10:52:18;;;;;;;9.18;4.60;;;;;;;32.65;54.57;99361.47;5197945;28;20060;-72
2022/08/15 10:55:00;;;;;;;;;;;;;;;32.67;54.58;99353.13;5196670;28;20514;-72
2022/08/15 10:57:47;;;;;;;10.27;4.65;;;;;;;32.44;53.37;99356.50;5198209;28;20279;-71
2022/08/15 11:03:03;;;;;;;6.22;4.38;;;;;;;32.51;52.91;99354.56;5343434;22;20452;-93
2022/08/15 11:06:04;;;;;;;11.80;4.85;;;;;;;32.20;54.00;99356.53;5193016;28;20030;-91
2022/08/15 11:09:19;;;;;;;7.72;4.40;;;;;;;32.56;54.45;99349.28;5201084;28;20032;-92
2022/08/15 11:12:10;;;;;;;;;;;;;;;;;;;;;
2022/08/15 11:15:14;;;;;;;;;;;;;;;;;;;;;
2022/08/15 11:18:10;;;;;;;10.10;4.10;;;;;;;33.35;52.87;99341.91;5204102;28;20033;-92
2022/08/15 11:21:09;;;;;;;;;;;;;;;;;;;;;
2022/08/15 11:23:55;;;;;;;;;;;;;;;;;;;;;
2022/08/15 11:27:27;;;;;;;;;;;;;;;;;;;;;
2022/08/15 11:30:13;;;;;;;;;;;;;;;;;;;;;
2022/08/15 11:36:38;;;;;;;;;;;;;;;;;;;;;
2022/08/15 11:39:54;;;;;;;;;;;;;;;;;;;;;
2022/08/15 11:42:50;;;;;;;6.88;4.50;;;;;;;32.30;52.66;99329.78;5204347;28;20522;-94
2022/08/15 11:45:40;;;;;;;;;;;;;;;;;;;;;
2022/08/15 11:52:00;;;;;;;8.25;3.97;;;;;;;32.25;52.74;99319.63;5189920;28;20041;-92
2022/08/15 11:55:13;;;;;;;7.20;4.00;;;;;;;32.09;53.13;99311.25;5202800;28;20037;-91
2022/08/15 11:58:34;;;;;;;;;;;;;;;;;;;;;
2022/08/15 12:01:58;;;;;;;10.65;4.18;;;;;;;31.31;55.93;99328.84;5202939;28;20065;-91
2022/08/15 12:04:45;;;;;;;7.72;4.60;;;;;;;31.10;56.36;99329.16;5187232;28;20037;-93
2022/08/15 12:14:28;;;;;;;10.63;4.72;;;;;;;30.11;57.90;99330.66;5191528;28;20029;-92
2022/08/15 12:17:10;;;;;;;6.63;3.90;;;;;;;30.47;56.60;99323.75;5204378;28;20155;-92
2022/08/15 12:20:04;;;;;;;;;;;;;;;;;;;;;
2022/08/15 12:22:53;;;;;;;8.30;4.38;;;;;;;30.49;58.65;99326.22;5205590;28;20372;-92
2022/08/15 12:25:36;;;;;;;;;;;;;;;;;;;;;
2022/08/15 12:28:09;;;;;;;10.23;4.07;;;;;;;30.61;58.39;99319.97;5200194;28;20422;-92
2022/08/15 12:30:40;;;;;;;7.72;4.03;;;;;;;30.87;57.59;99318.03;5198551;28;20059;-91
2022/08/15 12:33:24;;;;;;;;;;;;;;;;;;;;;
2022/08/15 12:35:58;;;;;;;5.38;3.50;;;;;;;30.62;57.50;99312.72;5205822;28;20029;-91
2022/08/15 12:46:28;;;;;;;;;;;;;;;;;;;;;
2022/08/15 12:57:20;;;;;;;;;;;;;;;;;;;;;
2022/08/15 13:10:35;;;;;;;6.40;4.07;;;;;;;30.62;56.51;99310.03;5212357;28;20495;-93
2022/08/15 13:18:03;;;;;;;;;;;;;;;;;;;;;
2022/08/15 13:24:26;;;;;;;14.88;5.50;;;;;;;27.57;69.13;99328.56;5215665;28;20089;-92
2022/08/15 13:28:11;;;;;;;;;;;;;;;;;;;;;
2022/08/15 13:31:30;;;;;;;;;;;;;;;;;;;;;
2022/08/15 13:34:00;;;;;;;10.57;4.07;;;;;;;26.63;73.61;99355.66;5379218;22;20011;-76
2022/08/15 13:36:32;;;;;;;11.82;4.57;;;;;;;26.75;76.97;99350.50;5198536;28;20506;-74
2022/08/15 13:39:15;;;;;;;18.25;6.22;;;;;;;26.65;80.41;99342.94;5198344;28;20395;-76
2022/08/15 13:41:46;;;;;;;21.80;5.93;;;;;;;26.12;85.19;99400.25;5200305;28;20591;-77
2022/08/15 13:44:17;;;;;;;34.22;9.40;;;;;;;25.67;93.61;99485.91;5196645;28;20117;-76
2022/08/15 13:46:47;;;;;;;21.17;7.18;;;;;;;24.57;98.67;99530.72;5201993;28;20029;-77
2022/08/15 13:49:21;;;;;;;17.52;8.63;;;;;;;23.03;100.00;99551.69;5200351;28;20037;-76
2022/08/15 13:51:53;;;;;;;11.68;5.95;;;;;;;22.15;100.00;99541.34;5201489;28;20033;-77